createdAt,value
2018-05-08T00:00:35.039Z,13.54
2018-05-08T00:01:43.125Z,13.62
2018-05-08T00:02:51.158Z,13.54
2018-05-08T00:03:59.239Z,13.65
2018-05-08T00:05:07.312Z,13.58
2018-05-08T00:06:15.357Z,13.61
2018-05-08T00:07:23.423Z,13.68
2018-05-08T00:08:31.481Z,13.61
2018-05-08T00:09:39.559Z,13.76
2018-05-08T00:10:47.609Z,13.64
2018-05-08T00:11:55.685Z,13.55
2018-05-08T00:13:03.743Z,13.50
2018-05-08T00:14:11.792Z,13.42
2018-05-08T00:15:19.868Z,13.30
2018-05-08T00:16:27.932Z,13.36
2018-05-08T00:17:35.971Z,13.47
2018-05-08T00:18:44.043Z,13.45
2018-05-08T00:19:52.120Z,13.30
2018-05-08T00:21:00.171Z,13.33
2018-05-08T00:22:08.236Z,13.24
2018-05-08T00:23:16.309Z,13.21
2018-05-08T00:24:24.354Z,13.13
2018-05-08T00:25:32.419Z,13.23
2018-05-08T00:26:40.479Z,13.19
2018-05-08T00:27:48.545Z,13.23
2018-05-08T00:28:56.623Z,13.28
2018-05-08T00:30:04.667Z,13.26
2018-05-08T00:31:12.743Z,13.49
2018-05-08T00:32:20.796Z,13.45
2018-05-08T00:33:28.871Z,13.54
2018-05-08T00:34:36.934Z,13.45
2018-05-08T00:35:45.017Z,13.37
2018-05-08T00:36:53.055Z,13.45
2018-05-08T00:38:01.117Z,13.42
2018-05-08T00:39:09.155Z,13.33
2018-05-08T00:40:17.225Z,13.26
2018-05-08T00:41:25.293Z,13.31
2018-05-08T00:42:33.364Z,13.17
2018-05-08T00:43:41.409Z,13.30
2018-05-08T00:44:49.493Z,13.23
2018-05-08T00:45:57.536Z,13.28
2018-05-08T00:47:05.614Z,13.33
2018-05-08T00:48:13.687Z,13.24
2018-05-08T00:49:21.717Z,13.30
2018-05-08T00:50:29.783Z,13.31
2018-05-08T00:51:37.870Z,13.27
2018-05-08T00:52:45.935Z,13.20
2018-05-08T00:53:53.986Z,13.16
2018-05-08T00:55:02.033Z,13.09
2018-05-08T00:56:10.094Z,13.09
2018-05-08T00:57:18.191Z,13.06
2018-05-08T00:58:26.240Z,13.01
2018-05-08T00:59:34.308Z,12.99
2018-05-08T01:00:42.354Z,13.03
2018-05-08T01:01:50.435Z,12.99
2018-05-08T01:02:58.497Z,12.99
2018-05-08T01:04:06.556Z,12.98
2018-05-08T01:05:14.593Z,13.06
2018-05-08T01:06:22.674Z,13.02
2018-05-08T01:07:30.744Z,13.01
2018-05-08T01:08:38.795Z,13.01
2018-05-08T01:09:46.875Z,13.02
2018-05-08T01:10:54.936Z,13.16
2018-05-08T01:12:02.977Z,13.33
2018-05-08T01:13:11.064Z,13.36
2018-05-08T01:14:19.122Z,13.33
2018-05-08T01:15:27.175Z,13.33
2018-05-08T01:16:35.229Z,13.27
2018-05-08T01:17:43.293Z,13.28
2018-05-08T01:18:51.345Z,13.21
2018-05-08T01:19:59.431Z,13.13
2018-05-08T01:21:07.502Z,13.21
2018-05-08T01:22:15.546Z,13.11
2018-05-08T01:23:23.593Z,13.13
2018-05-08T01:24:31.652Z,13.13
2018-05-08T01:25:39.728Z,13.13
2018-05-08T01:26:47.793Z,13.08
2018-05-08T01:27:55.844Z,13.08
2018-05-08T01:29:03.933Z,13.06
2018-05-08T01:30:11.967Z,12.98
2018-05-08T01:31:20.048Z,13.01
2018-05-08T01:32:28.105Z,13.02
2018-05-08T01:33:36.174Z,13.08
2018-05-08T01:34:44.230Z,13.08
2018-05-08T01:35:52.299Z,13.06
2018-05-08T01:37:00.387Z,13.13
2018-05-08T01:38:08.432Z,13.17
2018-05-08T01:39:16.473Z,13.13
2018-05-08T01:40:24.528Z,13.17
2018-05-08T01:41:32.621Z,13.11
2018-05-08T01:42:40.655Z,13.09
2018-05-08T01:43:48.748Z,13.26
2018-05-08T01:44:56.781Z,13.47
2018-05-08T01:46:04.839Z,13.46
2018-05-08T01:47:12.934Z,13.40
2018-05-08T01:48:20.964Z,13.31
2018-05-08T01:49:29.029Z,13.43
2018-05-08T01:50:37.110Z,13.46
2018-05-08T01:51:45.180Z,13.45
2018-05-08T01:52:53.233Z,13.45
2018-05-08T01:54:01.277Z,13.42
2018-05-08T01:55:09.346Z,13.52
2018-05-08T01:56:17.423Z,13.54
2018-05-08T01:57:25.491Z,13.58
2018-05-08T01:58:33.552Z,13.57
2018-05-08T01:59:41.592Z,13.46
2018-05-08T02:00:49.661Z,13.45
2018-05-08T02:01:57.721Z,13.54
2018-05-08T02:03:05.788Z,13.50
2018-05-08T02:04:13.851Z,13.50
2018-05-08T02:05:21.882Z,13.43
2018-05-08T02:06:29.975Z,13.39
2018-05-08T02:07:38.074Z,13.30
2018-05-08T02:08:46.113Z,13.26
2018-05-08T02:09:54.166Z,13.12
2018-05-08T02:11:02.218Z,13.27
2018-05-08T02:12:10.273Z,13.24
2018-05-08T02:13:18.363Z,13.21
2018-05-08T02:14:26.407Z,13.13
2018-05-08T02:15:34.488Z,13.12
2018-05-08T02:16:42.549Z,13.08
2018-05-08T02:17:50.592Z,13.05
2018-05-08T02:18:58.675Z,13.09
2018-05-08T02:20:06.733Z,12.99
2018-05-08T02:21:14.762Z,13.03
2018-05-08T02:22:22.845Z,13.01
2018-05-08T02:23:30.912Z,12.98
2018-05-08T02:24:38.969Z,13.11
2018-05-08T02:25:47.036Z,13.13
2018-05-08T02:26:55.100Z,13.17
2018-05-08T02:28:03.147Z,13.08
2018-05-08T02:29:11.221Z,13.03
2018-05-08T02:30:19.298Z,13.09
2018-05-08T02:31:27.360Z,13.08
2018-05-08T02:32:35.402Z,12.99
2018-05-08T02:33:43.454Z,13.03
2018-05-08T02:34:51.514Z,13.05
2018-05-08T02:35:59.594Z,13.08
2018-05-08T02:37:07.649Z,13.05
2018-05-08T02:38:15.736Z,13.17
2018-05-08T02:39:23.775Z,13.28
2018-05-08T02:40:31.838Z,13.28
2018-05-08T02:41:39.913Z,13.31
2018-05-08T02:42:47.983Z,13.24
2018-05-08T02:43:56.039Z,13.17
2018-05-08T02:45:04.087Z,13.24
2018-05-08T02:46:12.138Z,13.24
2018-05-08T02:47:20.225Z,13.23
2018-05-08T02:48:28.285Z,13.17
2018-05-08T02:49:36.340Z,13.11
2018-05-08T02:50:44.419Z,13.08
2018-05-08T02:51:52.490Z,13.03
2018-05-08T02:53:00.510Z,13.01
2018-05-08T02:54:08.605Z,12.94
2018-05-08T02:55:16.653Z,12.98
2018-05-08T02:56:24.741Z,12.88
2018-05-08T02:57:32.783Z,12.90
2018-05-08T02:58:40.847Z,12.86
2018-05-08T02:59:48.907Z,12.87
2018-05-08T03:00:56.955Z,12.87
2018-05-08T03:02:05.036Z,12.84
2018-05-08T03:03:13.075Z,12.80
2018-05-08T03:04:21.147Z,12.72
2018-05-08T03:05:29.205Z,12.72
2018-05-08T03:06:37.280Z,12.75
2018-05-08T03:07:45.338Z,12.68
2018-05-08T03:08:53.416Z,12.58
2018-05-08T03:10:01.479Z,12.65
2018-05-08T03:11:09.514Z,12.65
2018-05-08T03:12:17.582Z,12.55
2018-05-08T03:13:25.637Z,12.47
2018-05-08T03:14:33.691Z,12.45
2018-05-08T03:15:41.753Z,12.37
2018-05-08T03:16:49.836Z,12.44
2018-05-08T03:17:57.904Z,12.35
2018-05-08T03:19:05.961Z,12.48
2018-05-08T03:20:14.029Z,12.43
2018-05-08T03:21:22.064Z,12.39
2018-05-08T03:22:30.133Z,12.35
2018-05-08T03:23:38.213Z,12.33
2018-05-08T03:24:46.262Z,12.29
2018-05-08T03:25:54.338Z,12.30
2018-05-08T03:27:02.380Z,12.45
2018-05-08T03:28:10.467Z,12.39
2018-05-08T03:29:18.522Z,12.40
2018-05-08T03:30:26.569Z,12.36
2018-05-08T03:31:34.638Z,12.28
2018-05-08T03:32:42.722Z,12.30
2018-05-08T03:33:50.752Z,12.30
2018-05-08T03:34:58.827Z,12.33
2018-05-08T03:36:06.890Z,12.30
2018-05-08T03:37:14.935Z,12.30
2018-05-08T03:38:23.004Z,12.39
2018-05-08T03:39:31.084Z,12.43
2018-05-08T03:40:39.142Z,12.39
2018-05-08T03:41:47.183Z,12.28
2018-05-08T03:42:55.254Z,12.29
2018-05-08T03:44:03.331Z,12.18
2018-05-08T03:45:11.356Z,12.12
2018-05-08T03:46:19.439Z,12.28
2018-05-08T03:47:27.492Z,12.20
2018-05-08T03:48:35.563Z,12.14
2018-05-08T03:49:43.635Z,12.18
2018-05-08T03:50:51.674Z,12.21
2018-05-08T03:51:59.739Z,12.20
2018-05-08T03:53:07.820Z,12.21
2018-05-08T03:54:15.885Z,12.25
2018-05-08T03:55:23.938Z,12.12
2018-05-08T03:56:31.977Z,12.18
2018-05-08T03:57:40.065Z,12.11
2018-05-08T03:58:48.127Z,12.12
2018-05-08T03:59:56.176Z,12.11
2018-05-08T04:01:04.240Z,12.08
2018-05-08T04:02:12.302Z,12.11
2018-05-08T04:03:20.355Z,12.08
2018-05-08T04:04:28.428Z,11.99
2018-05-08T04:05:36.495Z,11.95
2018-05-08T04:06:44.571Z,11.89
2018-05-08T04:07:52.596Z,11.89
2018-05-08T04:09:00.675Z,11.81
2018-05-08T04:10:11.784Z,11.86
2018-05-08T04:11:16.791Z,11.83
2018-05-08T04:12:24.847Z,11.89
2018-05-08T04:13:32.932Z,11.88
2018-05-08T04:14:40.988Z,11.85
2018-05-08T04:15:49.035Z,11.80
2018-05-08T04:16:57.122Z,11.81
2018-05-08T04:18:05.168Z,11.81
2018-05-08T04:19:13.229Z,11.71
2018-05-08T04:20:21.296Z,11.59
2018-05-08T04:21:29.345Z,11.58
2018-05-08T04:22:37.411Z,11.56
2018-05-08T04:23:45.473Z,11.49
2018-05-08T04:24:53.547Z,11.44
2018-05-08T04:26:01.613Z,11.51
2018-05-08T04:27:09.653Z,11.49
2018-05-08T04:28:17.744Z,11.45
2018-05-08T04:29:26.024Z,11.43
2018-05-08T04:30:33.871Z,11.44
2018-05-08T04:31:41.891Z,11.43
2018-05-08T04:32:49.984Z,11.49
2018-05-08T04:33:58.041Z,11.55
2018-05-08T04:35:06.115Z,11.52
2018-05-08T04:36:14.134Z,11.52
2018-05-08T04:37:22.388Z,11.49
2018-05-08T04:38:30.287Z,11.51
2018-05-08T04:39:38.332Z,11.55
2018-05-08T04:40:46.882Z,11.60
2018-05-08T04:41:54.452Z,11.51
2018-05-08T04:43:02.528Z,11.60
2018-05-08T04:44:11.029Z,11.70
2018-05-08T04:45:18.640Z,11.68
2018-05-08T04:46:27.396Z,11.74
2018-05-08T04:47:35.364Z,11.71
2018-05-08T04:48:42.932Z,11.77
2018-05-08T04:49:51.327Z,11.80
2018-05-08T04:50:58.986Z,11.89
2018-05-08T04:52:07.138Z,11.93
2018-05-08T04:53:15.085Z,11.91
2018-05-08T04:54:23.139Z,12.08
2018-05-08T04:55:31.207Z,12.14
2018-05-08T04:56:39.248Z,12.12
2018-05-08T04:57:47.417Z,12.11
2018-05-08T04:58:55.384Z,12.12
2018-05-08T05:00:03.442Z,12.28
2018-05-08T05:01:11.488Z,12.11
2018-05-08T05:02:19.571Z,12.18
2018-05-08T05:03:28.203Z,12.26
2018-05-08T05:04:35.774Z,12.18
2018-05-08T05:05:43.750Z,12.26
2018-05-08T05:06:51.834Z,12.36
2018-05-08T05:07:59.859Z,12.29
2018-05-08T05:09:07.943Z,12.32
2018-05-08T05:10:16.878Z,12.29
2018-05-08T05:11:24.117Z,12.43
2018-05-08T05:12:32.099Z,12.37
2018-05-08T05:13:40.206Z,12.50
2018-05-08T05:14:48.271Z,12.51
2018-05-08T05:15:56.334Z,12.58
2018-05-08T05:17:04.482Z,12.54
2018-05-08T05:18:13.456Z,12.69
2018-05-08T05:19:21.146Z,12.65
2018-05-08T05:20:28.558Z,12.65
2018-05-08T05:21:36.637Z,12.80
2018-05-08T05:22:44.676Z,13.03
2018-05-08T05:23:52.741Z,13.21
2018-05-08T05:25:00.831Z,13.16
2018-05-08T05:26:08.879Z,13.11
2018-05-08T05:27:16.953Z,13.02
2018-05-08T05:28:24.988Z,13.06
2018-05-08T05:29:33.048Z,13.08
2018-05-08T05:30:41.130Z,13.17
2018-05-08T05:31:49.176Z,13.19
2018-05-08T05:32:57.270Z,13.13
2018-05-08T05:34:05.319Z,13.13
2018-05-08T05:35:13.374Z,13.13
2018-05-08T05:36:21.448Z,13.08
2018-05-08T05:37:29.477Z,13.12
2018-05-08T05:38:37.551Z,13.13
2018-05-08T05:39:45.610Z,13.13
2018-05-08T05:40:53.674Z,13.16
2018-05-08T05:42:01.726Z,13.30
2018-05-08T05:43:09.812Z,13.20
2018-05-08T05:44:17.876Z,13.30
2018-05-08T05:45:25.945Z,13.31
2018-05-08T05:46:33.979Z,13.27
2018-05-08T05:47:42.030Z,13.33
2018-05-08T05:48:50.133Z,13.37
2018-05-08T05:49:58.194Z,13.31
2018-05-08T05:51:06.234Z,13.36
2018-05-08T05:52:14.321Z,13.37
2018-05-08T05:53:22.385Z,13.50
2018-05-08T05:54:30.441Z,13.49
2018-05-08T05:55:38.503Z,13.36
2018-05-08T05:56:46.569Z,13.50
2018-05-08T05:57:54.619Z,13.50
2018-05-08T05:59:02.692Z,13.49
2018-05-08T06:00:10.877Z,13.57
2018-05-08T06:01:18.796Z,13.52
2018-05-08T06:02:26.877Z,13.57
2018-05-08T06:03:34.928Z,13.58
2018-05-08T06:04:43.006Z,13.62
2018-05-08T06:05:51.067Z,13.60
2018-05-08T06:06:59.109Z,13.78
2018-05-08T06:08:07.197Z,13.70
2018-05-08T06:09:15.232Z,13.76
2018-05-08T06:10:23.293Z,13.78
2018-05-08T06:11:31.349Z,13.75
2018-05-08T06:12:39.430Z,13.80
2018-05-08T06:13:47.488Z,13.82
2018-05-08T06:14:55.571Z,13.87
2018-05-08T06:16:03.633Z,13.94
2018-05-08T06:17:11.649Z,13.91
2018-05-08T06:18:19.735Z,13.91
2018-05-08T06:19:27.800Z,13.91
2018-05-08T06:20:35.877Z,13.89
2018-05-08T06:21:43.941Z,13.98
2018-05-08T06:22:51.999Z,13.98
2018-05-08T06:24:00.042Z,14.05
2018-05-08T06:25:08.125Z,14.11
2018-05-08T06:26:16.193Z,14.20
2018-05-08T06:27:24.270Z,14.11
2018-05-08T06:28:32.407Z,14.07
2018-05-08T06:29:40.356Z,14.16
2018-05-08T06:30:48.429Z,14.23
2018-05-08T06:31:56.523Z,14.23
2018-05-08T06:33:04.566Z,14.26
2018-05-08T06:34:12.634Z,14.37
2018-05-08T06:35:20.700Z,14.34
2018-05-08T06:36:28.760Z,14.37
2018-05-08T06:37:36.830Z,14.48
2018-05-08T06:38:44.883Z,14.43
2018-05-08T06:39:52.931Z,14.45
2018-05-08T06:41:01.006Z,14.59
2018-05-08T06:42:09.078Z,14.52
2018-05-08T06:43:17.144Z,14.49
2018-05-08T06:44:25.185Z,14.62
2018-05-08T06:45:33.259Z,14.67
2018-05-08T06:46:41.371Z,14.67
2018-05-08T06:47:49.405Z,14.70
2018-05-08T06:48:57.444Z,14.87
2018-05-08T06:50:05.531Z,14.79
2018-05-08T06:51:13.564Z,14.85
2018-05-08T06:52:21.622Z,14.97
2018-05-08T06:53:29.682Z,14.94
2018-05-08T06:54:37.781Z,15.10
2018-05-08T06:55:45.850Z,15.05
2018-05-08T06:56:53.881Z,15.10
2018-05-08T06:58:01.940Z,15.12
2018-05-08T06:59:10.040Z,15.08
2018-05-08T07:00:18.087Z,15.18
2018-05-08T07:01:26.144Z,15.25
2018-05-08T07:02:34.215Z,15.22
2018-05-08T07:03:42.256Z,15.29
2018-05-08T07:04:50.333Z,15.29
2018-05-08T07:05:58.398Z,15.36
2018-05-08T07:07:06.454Z,15.44
2018-05-08T07:08:14.530Z,15.54
2018-05-08T07:09:22.586Z,15.45
2018-05-08T07:10:30.672Z,15.54
2018-05-08T07:11:38.746Z,15.65
2018-05-08T07:12:46.793Z,15.72
2018-05-08T07:13:54.855Z,15.76
2018-05-08T07:15:02.920Z,15.88
2018-05-08T07:16:11.115Z,15.90
2018-05-08T07:17:19.038Z,15.94
2018-05-08T07:18:27.117Z,16.02
2018-05-08T07:19:35.200Z,16.18
2018-05-08T07:20:43.236Z,16.32
2018-05-08T07:21:51.313Z,16.39
2018-05-08T07:22:59.376Z,16.64
2018-05-08T07:24:07.548Z,16.79
2018-05-08T07:25:15.534Z,17.23
2018-05-08T07:26:23.565Z,17.71
2018-05-08T07:27:31.638Z,18.18
2018-05-08T07:28:39.721Z,18.46
2018-05-08T07:29:47.782Z,18.83
2018-05-08T07:30:55.894Z,18.98
2018-05-08T07:32:03.905Z,19.23
2018-05-08T07:33:11.956Z,19.42
2018-05-08T07:34:20.036Z,19.53
2018-05-08T07:35:28.138Z,19.99
2018-05-08T07:36:36.188Z,20.07
2018-05-08T07:37:44.265Z,19.99
2018-05-08T07:38:52.341Z,20.12
2018-05-08T07:40:00.447Z,20.27
2018-05-08T07:41:08.504Z,20.19
2018-05-08T07:42:16.557Z,19.87
2018-05-08T07:43:24.626Z,19.70
2018-05-08T07:44:32.691Z,19.74
2018-05-08T07:45:40.785Z,19.67
2018-05-08T07:46:48.850Z,19.30
2018-05-08T07:47:56.932Z,19.32
2018-05-08T07:49:04.966Z,19.81
2018-05-08T07:50:13.064Z,20.22
2018-05-08T07:51:21.144Z,19.71
2018-05-08T07:52:29.214Z,19.81
2018-05-08T07:53:37.271Z,20.36
2018-05-08T07:54:45.352Z,21.03
2018-05-08T07:55:53.427Z,21.72
2018-05-08T07:57:01.478Z,22.26
2018-05-08T07:58:09.567Z,22.52
2018-05-08T07:59:17.653Z,22.95
2018-05-08T08:00:25.699Z,23.28
2018-05-08T08:01:33.793Z,23.58
2018-05-08T08:02:41.860Z,23.81
2018-05-08T08:03:49.936Z,24.06
2018-05-08T08:04:57.999Z,24.44
2018-05-08T08:06:06.079Z,23.52
2018-05-08T08:07:14.151Z,23.14
2018-05-08T08:08:22.231Z,23.91
2018-05-08T08:09:30.327Z,24.11
2018-05-08T08:10:38.455Z,24.51
2018-05-08T08:11:46.464Z,24.61
2018-05-08T08:12:54.553Z,24.34
2018-05-08T08:14:02.641Z,24.85
2018-05-08T08:15:10.706Z,24.89
2018-05-08T08:16:18.808Z,25.12
2018-05-08T08:17:26.872Z,25.19
2018-05-08T08:18:34.992Z,25.37
2018-05-08T08:19:43.037Z,25.56
2018-05-08T08:20:51.119Z,25.04
2018-05-08T08:21:59.222Z,24.01
2018-05-08T08:23:07.284Z,24.38
2018-05-08T08:24:15.368Z,24.59
2018-05-08T08:25:23.428Z,24.89
2018-05-08T08:26:31.483Z,25.06
2018-05-08T08:27:39.583Z,25.18
2018-05-08T08:28:47.669Z,25.22
2018-05-08T08:29:55.764Z,25.44
2018-05-08T08:31:03.803Z,25.44
2018-05-08T08:32:11.892Z,25.44
2018-05-08T08:33:20.003Z,25.52
2018-05-08T08:34:28.050Z,25.76
2018-05-08T08:35:36.228Z,25.96
2018-05-08T08:36:44.248Z,25.86
2018-05-08T08:37:52.304Z,26.24
2018-05-08T08:39:00.404Z,26.11
2018-05-08T08:40:08.486Z,26.15
2018-05-08T08:41:16.553Z,26.15
2018-05-08T08:42:24.656Z,26.16
2018-05-08T08:43:32.725Z,26.10
2018-05-08T08:44:40.793Z,25.96
2018-05-08T08:45:48.908Z,25.98
2018-05-08T08:46:56.957Z,25.91
2018-05-08T08:48:05.041Z,26.03
2018-05-08T08:49:13.191Z,26.29
2018-05-08T08:50:21.214Z,26.45
2018-05-08T08:51:29.307Z,26.36
2018-05-08T08:52:37.398Z,26.13
2018-05-08T08:53:45.475Z,26.26
2018-05-08T08:54:53.538Z,26.29
2018-05-08T08:56:01.617Z,25.77
2018-05-08T08:57:09.705Z,25.80
2018-05-08T08:58:17.784Z,25.56
2018-05-08T08:59:25.884Z,25.56
2018-05-08T09:00:33.953Z,25.48
2018-05-08T09:01:42.018Z,25.61
2018-05-08T09:02:50.122Z,25.76
2018-05-08T09:03:58.297Z,25.49
2018-05-08T09:05:06.272Z,24.22
2018-05-08T09:06:14.375Z,23.32
2018-05-08T09:07:22.427Z,22.84
2018-05-08T09:08:30.538Z,22.95
2018-05-08T09:09:38.592Z,23.21
2018-05-08T09:10:46.690Z,23.06
2018-05-08T09:11:54.773Z,23.11
2018-05-08T09:13:02.846Z,23.13
2018-05-08T09:14:10.924Z,22.83
2018-05-08T09:15:19.037Z,22.88
2018-05-08T09:16:27.099Z,22.96
2018-05-08T09:17:35.145Z,22.95
2018-05-08T09:18:43.228Z,22.93
2018-05-08T09:19:51.342Z,22.81
2018-05-08T09:20:59.381Z,22.84
2018-05-08T09:22:07.458Z,22.96
2018-05-08T09:23:15.531Z,22.76
2018-05-08T09:24:23.588Z,22.74
2018-05-08T09:25:31.667Z,22.67
2018-05-08T09:26:39.755Z,22.62
2018-05-08T09:27:47.913Z,22.44
2018-05-08T09:28:55.884Z,22.52
2018-05-08T09:30:03.981Z,22.52
2018-05-08T09:31:12.036Z,21.75
2018-05-08T09:32:20.105Z,21.80
2018-05-08T09:33:28.186Z,21.91
2018-05-08T09:34:36.278Z,22.14
2018-05-08T09:35:44.342Z,22.26
2018-05-08T09:36:52.387Z,22.22
2018-05-08T09:38:00.500Z,22.19
2018-05-08T09:39:08.547Z,22.28
2018-05-08T09:40:16.633Z,22.43
2018-05-08T09:41:24.689Z,22.52
2018-05-08T09:42:32.777Z,22.47
2018-05-08T09:43:40.846Z,22.65
2018-05-08T09:44:48.916Z,22.67
2018-05-08T09:45:56.979Z,22.76
2018-05-08T09:47:05.045Z,22.78
2018-05-08T09:48:13.120Z,22.59
2018-05-08T09:49:21.193Z,22.63
2018-05-08T09:50:29.259Z,22.77
2018-05-08T09:51:37.324Z,22.77
2018-05-08T09:52:45.437Z,22.80
2018-05-08T09:53:53.491Z,22.89
2018-05-08T09:55:01.541Z,22.96
2018-05-08T09:56:09.636Z,23.06
2018-05-08T09:57:17.700Z,23.04
2018-05-08T09:58:25.773Z,23.17
2018-05-08T09:59:33.844Z,23.26
2018-05-08T10:00:41.910Z,23.39
2018-05-08T10:01:49.963Z,23.37
2018-05-08T10:02:58.036Z,23.29
2018-05-08T10:04:06.155Z,23.29
2018-05-08T10:05:14.168Z,23.40
2018-05-08T10:06:22.244Z,23.32
2018-05-08T10:07:30.333Z,22.88
2018-05-08T10:08:38.394Z,23.02
2018-05-08T10:09:46.469Z,22.96
2018-05-08T10:10:54.522Z,23.10
2018-05-08T10:12:02.605Z,23.26
2018-05-08T10:13:10.673Z,23.28
2018-05-08T10:14:18.745Z,23.48
2018-05-08T10:15:26.837Z,23.48
2018-05-08T10:16:34.900Z,23.59
2018-05-08T10:17:42.959Z,23.45
2018-05-08T10:18:51.044Z,22.80
2018-05-08T10:19:59.112Z,22.80
2018-05-08T10:21:07.168Z,22.92
2018-05-08T10:22:15.238Z,23.11
2018-05-08T10:23:23.336Z,23.21
2018-05-08T10:24:31.377Z,23.39
2018-05-08T10:25:39.439Z,23.54
2018-05-08T10:26:47.545Z,23.59
2018-05-08T10:27:55.605Z,23.62
2018-05-08T10:29:03.654Z,23.66
2018-05-08T10:30:11.730Z,23.62
2018-05-08T10:31:19.845Z,23.40
2018-05-08T10:32:27.879Z,23.33
2018-05-08T10:33:35.963Z,23.47
2018-05-08T10:34:44.033Z,23.54
2018-05-08T10:35:52.092Z,23.69
2018-05-08T10:37:00.177Z,23.85
2018-05-08T10:38:08.228Z,23.99
2018-05-08T10:39:16.333Z,24.00
2018-05-08T10:40:24.382Z,23.82
2018-05-08T10:41:32.452Z,23.33
2018-05-08T10:42:40.554Z,23.37
2018-05-08T10:43:48.584Z,23.45
2018-05-08T10:44:56.658Z,23.52
2018-05-08T10:46:04.723Z,23.33
2018-05-08T10:47:12.788Z,23.47
2018-05-08T10:48:20.873Z,23.36
2018-05-08T10:49:28.958Z,23.40
2018-05-08T10:50:37.026Z,23.44
2018-05-08T10:51:45.076Z,23.25
2018-05-08T10:52:53.160Z,23.07
2018-05-08T10:54:01.233Z,23.10
2018-05-08T10:55:09.277Z,23.21
2018-05-08T10:56:17.373Z,23.17
2018-05-08T10:57:25.444Z,23.37
2018-05-08T10:58:33.525Z,23.54
2018-05-08T10:59:41.556Z,23.29
2018-05-08T11:00:49.633Z,23.49
2018-05-08T11:01:57.712Z,23.55
2018-05-08T11:03:05.788Z,23.48
2018-05-08T11:04:13.858Z,23.62
2018-05-08T11:05:21.914Z,23.51
2018-05-08T11:06:29.985Z,23.33
2018-05-08T11:07:38.067Z,23.06
2018-05-08T11:08:46.137Z,23.37
2018-05-08T11:09:54.249Z,23.49
2018-05-08T11:11:02.257Z,23.55
2018-05-08T11:12:10.360Z,23.70
2018-05-08T11:13:18.416Z,23.86
2018-05-08T11:14:26.501Z,24.01
2018-05-08T11:15:34.566Z,24.19
2018-05-08T11:16:42.628Z,24.43
2018-05-08T11:17:50.704Z,24.34
2018-05-08T11:18:58.778Z,23.49
2018-05-08T11:20:06.851Z,23.33
2018-05-08T11:21:14.929Z,23.51
2018-05-08T11:22:22.996Z,23.71
2018-05-08T11:23:31.046Z,23.74
2018-05-08T11:24:39.114Z,23.81
2018-05-08T11:25:47.200Z,23.85
2018-05-08T11:26:55.274Z,23.91
2018-05-08T11:28:03.325Z,23.86
2018-05-08T11:29:11.402Z,23.82
2018-05-08T11:30:19.467Z,23.77
2018-05-08T11:31:27.552Z,23.89
2018-05-08T11:32:35.613Z,24.10
2018-05-08T11:33:43.681Z,24.16
2018-05-08T11:34:51.726Z,23.94
2018-05-08T11:35:59.825Z,23.47
2018-05-08T11:37:07.883Z,23.71
2018-05-08T11:38:15.964Z,23.85
2018-05-08T11:39:24.042Z,24.10
2018-05-08T11:40:32.089Z,24.07
2018-05-08T11:41:40.179Z,23.89
2018-05-08T11:42:48.242Z,23.66
2018-05-08T11:43:56.360Z,23.77
2018-05-08T11:45:04.391Z,24.04
2018-05-08T11:46:12.453Z,24.14
2018-05-08T11:47:20.543Z,24.07
2018-05-08T11:48:28.599Z,23.82
2018-05-08T11:49:36.739Z,24.06
2018-05-08T11:50:44.736Z,23.96
2018-05-08T11:51:52.821Z,24.01
2018-05-08T11:53:00.879Z,24.10
2018-05-08T11:54:08.974Z,23.86
2018-05-08T11:55:17.029Z,23.55
2018-05-08T11:56:25.090Z,23.77
2018-05-08T11:57:33.164Z,23.91
2018-05-08T11:58:41.264Z,24.04
2018-05-08T11:59:49.291Z,24.09
2018-05-08T12:00:57.458Z,24.18
2018-05-08T12:02:05.490Z,24.25
2018-05-08T12:03:13.538Z,24.36
2018-05-08T12:04:21.572Z,24.32
2018-05-08T12:05:29.649Z,24.00
2018-05-08T12:06:37.738Z,24.06
2018-05-08T12:07:45.819Z,24.11
2018-05-08T12:08:53.872Z,24.24
2018-05-08T12:10:01.920Z,24.18
2018-05-08T12:11:10.023Z,24.29
2018-05-08T12:12:18.073Z,24.36
2018-05-08T12:13:26.162Z,24.48
2018-05-08T12:14:34.328Z,24.62
2018-05-08T12:15:42.301Z,24.51
2018-05-08T12:16:50.363Z,24.61
2018-05-08T12:17:58.453Z,24.62
2018-05-08T12:19:06.496Z,24.78
2018-05-08T12:20:14.572Z,24.79
2018-05-08T12:21:22.666Z,24.43
2018-05-08T12:22:30.742Z,24.58
2018-05-08T12:23:38.792Z,24.62
2018-05-08T12:24:46.877Z,24.58
2018-05-08T12:25:54.940Z,24.50
2018-05-08T12:27:03.013Z,24.59
2018-05-08T12:28:11.061Z,24.56
2018-05-08T12:29:19.134Z,24.36
2018-05-08T12:30:27.224Z,24.34
2018-05-08T12:31:35.276Z,24.48
2018-05-08T12:32:43.346Z,24.56
2018-05-08T12:33:51.432Z,24.37
2018-05-08T12:34:59.517Z,24.38
2018-05-08T12:36:07.675Z,24.53
2018-05-08T12:37:15.650Z,24.55
2018-05-08T12:38:23.716Z,24.59
2018-05-08T12:39:31.780Z,24.61
2018-05-08T12:40:39.852Z,24.56
2018-05-08T12:41:47.934Z,24.51
2018-05-08T12:42:55.985Z,24.62
2018-05-08T12:44:04.077Z,24.75
2018-05-08T12:45:12.121Z,24.75
2018-05-08T12:46:20.202Z,24.79
2018-05-08T12:47:28.290Z,24.93
2018-05-08T12:48:36.343Z,24.94
2018-05-08T12:49:44.427Z,24.93
2018-05-08T12:50:52.490Z,24.93
2018-05-08T12:52:00.549Z,24.89
2018-05-08T12:53:08.623Z,25.07
2018-05-08T12:54:16.714Z,25.12
2018-05-08T12:55:24.789Z,25.21
2018-05-08T12:56:32.870Z,25.18
2018-05-08T12:57:40.929Z,25.12
2018-05-08T12:58:48.971Z,25.12
2018-05-08T12:59:57.057Z,25.12
2018-05-08T13:01:05.137Z,25.11
2018-05-08T13:02:13.215Z,25.11
2018-05-08T13:03:21.267Z,25.18
2018-05-08T13:04:29.330Z,25.18
2018-05-08T13:05:37.421Z,25.16
2018-05-08T13:06:45.501Z,25.15
2018-05-08T13:07:53.570Z,25.12
2018-05-08T13:09:01.616Z,25.14
2018-05-08T13:10:09.726Z,25.18
2018-05-08T13:11:17.773Z,25.18
2018-05-08T13:12:25.843Z,25.19
2018-05-08T13:13:33.892Z,25.19
2018-05-08T13:14:41.955Z,25.14
2018-05-08T13:15:50.068Z,25.07
2018-05-08T13:16:58.130Z,25.11
2018-05-08T13:18:06.198Z,24.96
2018-05-08T13:19:14.256Z,24.97
2018-05-08T13:20:22.332Z,25.04
2018-05-08T13:21:30.393Z,25.12
2018-05-08T13:22:38.488Z,25.04
2018-05-08T13:23:46.567Z,25.09
2018-05-08T13:24:54.595Z,25.12
2018-05-08T13:26:02.696Z,25.19
2018-05-08T13:27:10.734Z,24.93
2018-05-08T13:28:18.840Z,24.81
2018-05-08T13:29:26.888Z,24.55
2018-05-08T13:30:34.988Z,24.25
2018-05-08T13:31:43.053Z,24.32
2018-05-08T13:32:51.122Z,24.58
2018-05-08T13:33:59.211Z,24.59
2018-05-08T13:35:07.262Z,24.85
2018-05-08T13:36:15.331Z,24.88
2018-05-08T13:37:23.390Z,24.94
2018-05-08T13:38:31.460Z,25.03
2018-05-08T13:39:39.541Z,24.93
2018-05-08T13:40:47.609Z,24.78
2018-05-08T13:41:55.771Z,24.79
2018-05-08T13:43:03.734Z,24.81
2018-05-08T13:44:11.804Z,24.92
2018-05-08T13:45:19.899Z,24.82
2018-05-08T13:46:27.948Z,24.96
2018-05-08T13:47:36.044Z,25.04
2018-05-08T13:48:44.097Z,25.11
2018-05-08T13:49:52.142Z,25.15
2018-05-08T13:51:00.230Z,25.36
2018-05-08T13:52:08.300Z,25.37
2018-05-08T13:53:16.384Z,25.46
2018-05-08T13:54:24.451Z,25.51
2018-05-08T13:55:32.539Z,25.52
2018-05-08T13:56:40.596Z,25.39
2018-05-08T13:57:48.689Z,25.37
2018-05-08T13:58:56.752Z,25.18
2018-05-08T14:00:04.813Z,25.15
2018-05-08T14:01:12.871Z,25.14
2018-05-08T14:02:20.969Z,25.18
2018-05-08T14:03:29.027Z,25.09
2018-05-08T14:04:37.094Z,25.03
2018-05-08T14:05:45.169Z,24.94
2018-05-08T14:06:53.312Z,24.96
2018-05-08T14:08:01.292Z,24.81
2018-05-08T14:09:09.362Z,24.96
2018-05-08T14:10:17.441Z,24.93
2018-05-08T14:11:25.515Z,24.85
2018-05-08T14:12:33.650Z,24.85
2018-05-08T14:13:41.648Z,24.78
2018-05-08T14:14:49.739Z,24.89
2018-05-08T14:15:57.794Z,24.74
2018-05-08T14:17:05.865Z,24.66
2018-05-08T14:18:13.947Z,24.63
2018-05-08T14:19:22.087Z,24.58
2018-05-08T14:20:30.087Z,24.61
2018-05-08T14:21:38.151Z,24.59
2018-05-08T14:22:46.227Z,24.56
2018-05-08T14:23:54.312Z,24.62
2018-05-08T14:25:02.377Z,24.56
2018-05-08T14:26:10.464Z,24.55
2018-05-08T14:27:18.556Z,24.59
2018-05-08T14:28:26.606Z,24.47
2018-05-08T14:29:34.648Z,24.38
2018-05-08T14:30:42.729Z,24.29
2018-05-08T14:31:50.790Z,24.36
2018-05-08T14:32:58.858Z,24.40
2018-05-08T14:34:06.958Z,24.51
2018-05-08T14:35:15.026Z,24.50
2018-05-08T14:36:23.076Z,24.56